sensor_id;sensor_type;location;lat;lon;timestamp;temperature;humidity
30097;DHT22;16915;51.466;3.610;2023-05-02T00:01:23;11.50;99.90
30097;DHT22;16915;51.466;3.610;2023-05-02T00:03:49;11.40;99.90
30097;DHT22;16915;51.466;3.610;2023-05-02T00:06:14;11.40;99.90
30097;DHT22;16915;51.466;3.610;2023-05-02T00:08:40;11.30;99.90
30097;DHT22;16915;51.466;3.610;2023-05-02T00:11:05;11.20;99.90
30097;DHT22;16915;51.466;3.610;2023-05-02T00:13:31;11.20;99.90
30097;DHT22;16915;51.466;3.610;2023-05-02T00:15:56;11.10;99.90
30097;DHT22;16915;51.466;3.610;2023-05-02T00:18:22;11.00;99.90
30097;DHT22;16915;51.466;3.610;2023-05-02T00:20:48;11.00;99.90
30097;DHT22;16915;51.466;3.610;2023-05-02T00:23:14;11.00;99.90
30097;DHT22;16915;51.466;3.610;2023-05-02T00:25:43;10.90;99.90
30097;DHT22;16915;51.466;3.610;2023-05-02T00:28:08;10.90;99.90
30097;DHT22;16915;51.466;3.610;2023-05-02T00:30:34;10.80;99.90
30097;DHT22;16915;51.466;3.610;2023-05-02T00:32:59;10.80;99.90
30097;DHT22;16915;51.466;3.610;2023-05-02T00:35:25;10.80;99.90
30097;DHT22;16915;51.466;3.610;2023-05-02T00:37:50;10.80;99.90
30097;DHT22;16915;51.466;3.610;2023-05-02T00:40:16;10.90;99.90
30097;DHT22;16915;51.466;3.610;2023-05-02T00:42:41;10.90;99.90
30097;DHT22;16915;51.466;3.610;2023-05-02T00:45:07;10.90;99.90
30097;DHT22;16915;51.466;3.610;2023-05-02T00:47:32;10.90;99.90
30097;DHT22;16915;51.466;3.610;2023-05-02T00:49:58;11.00;99.90
30097;DHT22;16915;51.466;3.610;2023-05-02T00:52:25;11.00;99.90
30097;DHT22;16915;51.466;3.610;2023-05-02T00:54:51;11.00;99.90
30097;DHT22;16915;51.466;3.610;2023-05-02T00:57:16;11.00;99.90
30097;DHT22;16915;51.466;3.610;2023-05-02T00:59:41;10.90;99.90
30097;DHT22;16915;51.466;3.610;2023-05-02T01:02:18;10.90;99.90
30097;DHT22;16915;51.466;3.610;2023-05-02T01:04:58;10.80;99.90
30097;DHT22;16915;51.466;3.610;2023-05-02T01:12:44;10.60;99.90
30097;DHT22;16915;51.466;3.610;2023-05-02T01:15:16;10.60;99.90
30097;DHT22;16915;51.466;3.610;2023-05-02T01:17:43;10.60;99.90
30097;DHT22;16915;51.466;3.610;2023-05-02T01:20:13;10.60;99.90
30097;DHT22;16915;51.466;3.610;2023-05-02T01:22:40;10.60;99.90
30097;DHT22;16915;51.466;3.610;2023-05-02T01:25:09;10.60;99.90
30097;DHT22;16915;51.466;3.610;2023-05-02T01:27:39;10.70;99.90
30097;DHT22;16915;51.466;3.610;2023-05-02T01:30:07;10.70;99.90
30097;DHT22;16915;51.466;3.610;2023-05-02T01:32:34;10.80;99.90
30097;DHT22;16915;51.466;3.610;2023-05-02T01:35:01;10.70;99.90
30097;DHT22;16915;51.466;3.610;2023-05-02T01:37:27;10.70;99.90
30097;DHT22;16915;51.466;3.610;2023-05-02T01:39:53;10.70;99.90
30097;DHT22;16915;51.466;3.610;2023-05-02T01:42:19;10.60;99.90
30097;DHT22;16915;51.466;3.610;2023-05-02T01:44:45;10.50;99.90
30097;DHT22;16915;51.466;3.610;2023-05-02T01:47:11;10.50;99.90
30097;DHT22;16915;51.466;3.610;2023-05-02T01:49:37;10.40;99.90
30097;DHT22;16915;51.466;3.610;2023-05-02T01:52:04;10.30;99.90
30097;DHT22;16915;51.466;3.610;2023-05-02T01:54:32;10.30;99.90
30097;DHT22;16915;51.466;3.610;2023-05-02T01:56:59;10.30;99.90
30097;DHT22;16915;51.466;3.610;2023-05-02T01:59:25;10.10;99.90
30097;DHT22;16915;51.466;3.610;2023-05-02T02:01:53;10.10;99.90
30097;DHT22;16915;51.466;3.610;2023-05-02T02:04:19;10.10;99.90
30097;DHT22;16915;51.466;3.610;2023-05-02T02:06:45;10.10;99.90
30097;DHT22;16915;51.466;3.610;2023-05-02T02:09:12;10.10;99.90
30097;DHT22;16915;51.466;3.610;2023-05-02T02:14:11;10.20;99.90
30097;DHT22;16915;51.466;3.610;2023-05-02T02:16:38;10.30;99.90
30097;DHT22;16915;51.466;3.610;2023-05-02T02:19:06;10.30;99.90
30097;DHT22;16915;51.466;3.610;2023-05-02T02:21:34;10.40;99.90
30097;DHT22;16915;51.466;3.610;2023-05-02T02:24:01;10.50;99.90
30097;DHT22;16915;51.466;3.610;2023-05-02T02:26:27;10.40;99.90
30097;DHT22;16915;51.466;3.610;2023-05-02T02:28:53;10.50;99.90
30097;DHT22;16915;51.466;3.610;2023-05-02T02:31:19;10.50;99.90
30097;DHT22;16915;51.466;3.610;2023-05-02T02:33:44;10.50;99.90
30097;DHT22;16915;51.466;3.610;2023-05-02T02:41:26;10.60;99.90
30097;DHT22;16915;51.466;3.610;2023-05-02T02:43:55;10.70;99.90
30097;DHT22;16915;51.466;3.610;2023-05-02T02:46:28;10.80;99.90
30097;DHT22;16915;51.466;3.610;2023-05-02T02:51:53;10.80;99.90
30097;DHT22;16915;51.466;3.610;2023-05-02T02:54:32;10.80;99.90
30097;DHT22;16915;51.466;3.610;2023-05-02T02:59:39;10.80;99.90
30097;DHT22;16915;51.466;3.610;2023-05-02T03:02:07;10.80;99.90
30097;DHT22;16915;51.466;3.610;2023-05-02T03:04:33;10.80;99.90
30097;DHT22;16915;51.466;3.610;2023-05-02T03:06:59;10.80;99.90
30097;DHT22;16915;51.466;3.610;2023-05-02T03:09:25;10.80;99.90
30097;DHT22;16915;51.466;3.610;2023-05-02T03:11:54;10.80;99.90
30097;DHT22;16915;51.466;3.610;2023-05-02T03:14:20;10.80;99.90
30097;DHT22;16915;51.466;3.610;2023-05-02T03:16:45;10.80;99.90
30097;DHT22;16915;51.466;3.610;2023-05-02T03:19:11;10.80;99.90
30097;DHT22;16915;51.466;3.610;2023-05-02T03:21:36;10.80;99.90
30097;DHT22;16915;51.466;3.610;2023-05-02T03:24:02;10.80;99.90
30097;DHT22;16915;51.466;3.610;2023-05-02T03:26:28;10.80;99.90
30097;DHT22;16915;51.466;3.610;2023-05-02T03:28:54;10.80;99.90
30097;DHT22;16915;51.466;3.610;2023-05-02T03:31:20;10.70;99.90
30097;DHT22;16915;51.466;3.610;2023-05-02T03:33:46;10.80;99.90
30097;DHT22;16915;51.466;3.610;2023-05-02T03:36:11;10.70;99.90
30097;DHT22;16915;51.466;3.610;2023-05-02T03:38:37;10.70;99.90
30097;DHT22;16915;51.466;3.610;2023-05-02T03:41:02;10.70;99.90
30097;DHT22;16915;51.466;3.610;2023-05-02T03:43:28;10.70;99.90
30097;DHT22;16915;51.466;3.610;2023-05-02T03:45:54;10.80;99.90
30097;DHT22;16915;51.466;3.610;2023-05-02T03:48:19;10.70;99.90
30097;DHT22;16915;51.466;3.610;2023-05-02T03:50:45;10.70;99.90
30097;DHT22;16915;51.466;3.610;2023-05-02T03:53:10;10.70;99.90
30097;DHT22;16915;51.466;3.610;2023-05-02T03:55:39;10.70;99.90
30097;DHT22;16915;51.466;3.610;2023-05-02T03:58:05;10.70;99.90
30097;DHT22;16915;51.466;3.610;2023-05-02T04:00:31;10.70;99.90
30097;DHT22;16915;51.466;3.610;2023-05-02T04:02:56;10.70;99.90
30097;DHT22;16915;51.466;3.610;2023-05-02T04:05:22;10.60;99.90
30097;DHT22;16915;51.466;3.610;2023-05-02T04:07:47;10.60;99.90
30097;DHT22;16915;51.466;3.610;2023-05-02T04:10:13;10.60;99.90
30097;DHT22;16915;51.466;3.610;2023-05-02T04:12:41;10.60;99.90
30097;DHT22;16915;51.466;3.610;2023-05-02T04:15:07;10.60;99.90
30097;DHT22;16915;51.466;3.610;2023-05-02T04:17:33;10.50;99.90
30097;DHT22;16915;51.466;3.610;2023-05-02T04:19:59;10.50;99.90
30097;DHT22;16915;51.466;3.610;2023-05-02T04:22:24;10.50;99.90
30097;DHT22;16915;51.466;3.610;2023-05-02T04:24:50;10.50;99.90
30097;DHT22;16915;51.466;3.610;2023-05-02T04:27:15;10.50;99.90
30097;DHT22;16915;51.466;3.610;2023-05-02T04:29:40;10.50;99.90
30097;DHT22;16915;51.466;3.610;2023-05-02T04:32:06;10.40;99.90
30097;DHT22;16915;51.466;3.610;2023-05-02T04:34:31;10.50;99.90
30097;DHT22;16915;51.466;3.610;2023-05-02T04:36:57;10.50;99.90
30097;DHT22;16915;51.466;3.610;2023-05-02T04:39:22;10.50;99.90
30097;DHT22;16915;51.466;3.610;2023-05-02T04:41:48;10.40;99.90
30097;DHT22;16915;51.466;3.610;2023-05-02T04:44:13;10.40;99.90
30097;DHT22;16915;51.466;3.610;2023-05-02T04:46:39;10.40;99.90
30097;DHT22;16915;51.466;3.610;2023-05-02T04:49:04;10.40;99.90
30097;DHT22;16915;51.466;3.610;2023-05-02T04:51:30;10.40;99.90
30097;DHT22;16915;51.466;3.610;2023-05-02T04:53:56;10.40;99.90
30097;DHT22;16915;51.466;3.610;2023-05-02T04:56:21;10.30;99.90
30097;DHT22;16915;51.466;3.610;2023-05-02T04:58:47;10.40;99.90
30097;DHT22;16915;51.466;3.610;2023-05-02T05:01:12;10.30;99.90
30097;DHT22;16915;51.466;3.610;2023-05-02T05:03:38;10.40;99.90
30097;DHT22;16915;51.466;3.610;2023-05-02T05:06:03;10.30;99.90
30097;DHT22;16915;51.466;3.610;2023-05-02T05:08:29;10.30;99.90
30097;DHT22;16915;51.466;3.610;2023-05-02T05:10:54;10.30;99.90
30097;DHT22;16915;51.466;3.610;2023-05-02T05:13:20;10.30;99.90
30097;DHT22;16915;51.466;3.610;2023-05-02T05:15:46;10.30;99.90
30097;DHT22;16915;51.466;3.610;2023-05-02T05:18:11;10.30;99.90
30097;DHT22;16915;51.466;3.610;2023-05-02T05:20:37;10.30;99.90
30097;DHT22;16915;51.466;3.610;2023-05-02T05:23:02;10.40;99.90
30097;DHT22;16915;51.466;3.610;2023-05-02T05:25:28;10.30;99.90
30097;DHT22;16915;51.466;3.610;2023-05-02T05:27:53;10.40;99.90
30097;DHT22;16915;51.466;3.610;2023-05-02T05:30:20;10.30;99.90
30097;DHT22;16915;51.466;3.610;2023-05-02T05:32:46;10.40;99.90
30097;DHT22;16915;51.466;3.610;2023-05-02T05:35:11;10.40;99.90
30097;DHT22;16915;51.466;3.610;2023-05-02T05:37:37;10.40;99.90
30097;DHT22;16915;51.466;3.610;2023-05-02T05:40:07;10.50;99.90
30097;DHT22;16915;51.466;3.610;2023-05-02T05:42:32;10.50;99.90
30097;DHT22;16915;51.466;3.610;2023-05-02T05:44:58;10.60;99.90
30097;DHT22;16915;51.466;3.610;2023-05-02T05:47:23;10.70;99.90
30097;DHT22;16915;51.466;3.610;2023-05-02T05:49:52;10.80;99.90
30097;DHT22;16915;51.466;3.610;2023-05-02T05:52:18;10.70;99.90
30097;DHT22;16915;51.466;3.610;2023-05-02T05:54:43;10.70;99.90
30097;DHT22;16915;51.466;3.610;2023-05-02T05:57:09;10.70;99.90
30097;DHT22;16915;51.466;3.610;2023-05-02T05:59:34;10.70;99.90
30097;DHT22;16915;51.466;3.610;2023-05-02T06:02:00;10.80;99.90
30097;DHT22;16915;51.466;3.610;2023-05-02T06:04:26;10.80;99.90
30097;DHT22;16915;51.466;3.610;2023-05-02T06:06:51;10.80;99.90
30097;DHT22;16915;51.466;3.610;2023-05-02T06:09:18;10.80;99.90
30097;DHT22;16915;51.466;3.610;2023-05-02T06:11:43;10.80;99.90
30097;DHT22;16915;51.466;3.610;2023-05-02T06:14:09;10.70;99.90
30097;DHT22;16915;51.466;3.610;2023-05-02T06:16:35;10.70;99.90
30097;DHT22;16915;51.466;3.610;2023-05-02T06:19:00;10.70;99.90
30097;DHT22;16915;51.466;3.610;2023-05-02T06:21:26;10.80;99.90
30097;DHT22;16915;51.466;3.610;2023-05-02T06:23:51;10.90;99.90
30097;DHT22;16915;51.466;3.610;2023-05-02T06:26:17;11.00;99.90
30097;DHT22;16915;51.466;3.610;2023-05-02T06:28:42;11.20;99.90
30097;DHT22;16915;51.466;3.610;2023-05-02T06:31:08;11.30;99.90
30097;DHT22;16915;51.466;3.610;2023-05-02T06:33:34;11.40;99.90
30097;DHT22;16915;51.466;3.610;2023-05-02T06:35:59;11.50;99.90
30097;DHT22;16915;51.466;3.610;2023-05-02T06:38:25;11.60;99.90
30097;DHT22;16915;51.466;3.610;2023-05-02T06:40:50;11.70;99.90
30097;DHT22;16915;51.466;3.610;2023-05-02T06:43:16;11.80;99.90
30097;DHT22;16915;51.466;3.610;2023-05-02T06:45:42;11.90;99.90
30097;DHT22;16915;51.466;3.610;2023-05-02T06:48:08;12.00;99.90
30097;DHT22;16915;51.466;3.610;2023-05-02T06:50:33;12.00;99.90
30097;DHT22;16915;51.466;3.610;2023-05-02T06:52:59;12.00;99.90
30097;DHT22;16915;51.466;3.610;2023-05-02T06:55:25;12.10;99.90
30097;DHT22;16915;51.466;3.610;2023-05-02T06:57:51;12.10;99.90
30097;DHT22;16915;51.466;3.610;2023-05-02T07:00:17;12.10;99.90
30097;DHT22;16915;51.466;3.610;2023-05-02T07:02:45;12.10;99.90
30097;DHT22;16915;51.466;3.610;2023-05-02T07:05:11;11.80;99.90
30097;DHT22;16915;51.466;3.610;2023-05-02T07:07:37;11.80;99.90
30097;DHT22;16915;51.466;3.610;2023-05-02T07:10:03;11.60;99.90
30097;DHT22;16915;51.466;3.610;2023-05-02T07:12:29;11.80;99.90
30097;DHT22;16915;51.466;3.610;2023-05-02T07:14:54;11.90;99.90
30097;DHT22;16915;51.466;3.610;2023-05-02T07:17:20;12.00;99.90
30097;DHT22;16915;51.466;3.610;2023-05-02T07:19:45;12.00;99.90
30097;DHT22;16915;51.466;3.610;2023-05-02T07:22:11;11.90;99.90
30097;DHT22;16915;51.466;3.610;2023-05-02T07:24:40;11.80;99.90
30097;DHT22;16915;51.466;3.610;2023-05-02T07:27:07;11.90;99.90
30097;DHT22;16915;51.466;3.610;2023-05-02T07:29:32;12.10;99.90
30097;DHT22;16915;51.466;3.610;2023-05-02T07:31:58;12.20;99.90
30097;DHT22;16915;51.466;3.610;2023-05-02T07:34:23;12.40;99.90
30097;DHT22;16915;51.466;3.610;2023-05-02T07:36:49;12.50;99.90
30097;DHT22;16915;51.466;3.610;2023-05-02T07:39:14;12.80;99.90
30097;DHT22;16915;51.466;3.610;2023-05-02T07:41:40;13.00;99.90
30097;DHT22;16915;51.466;3.610;2023-05-02T07:44:05;13.30;99.90
30097;DHT22;16915;51.466;3.610;2023-05-02T07:46:31;13.40;99.90
30097;DHT22;16915;51.466;3.610;2023-05-02T07:48:56;13.30;99.90
30097;DHT22;16915;51.466;3.610;2023-05-02T07:51:22;13.20;99.90
30097;DHT22;16915;51.466;3.610;2023-05-02T07:53:49;13.10;99.90
30097;DHT22;16915;51.466;3.610;2023-05-02T07:56:14;13.10;99.90
30097;DHT22;16915;51.466;3.610;2023-05-02T07:58:40;13.00;99.90
30097;DHT22;16915;51.466;3.610;2023-05-02T08:01:05;13.10;99.90
30097;DHT22;16915;51.466;3.610;2023-05-02T08:03:31;13.20;99.90
30097;DHT22;16915;51.466;3.610;2023-05-02T08:05:56;13.30;99.90
30097;DHT22;16915;51.466;3.610;2023-05-02T08:08:22;13.40;99.90
30097;DHT22;16915;51.466;3.610;2023-05-02T08:10:47;13.50;99.90
30097;DHT22;16915;51.466;3.610;2023-05-02T08:13:14;13.60;99.90
30097;DHT22;16915;51.466;3.610;2023-05-02T08:15:40;13.60;99.90
30097;DHT22;16915;51.466;3.610;2023-05-02T08:18:05;13.50;99.90
30097;DHT22;16915;51.466;3.610;2023-05-02T08:20:31;13.30;99.90
30097;DHT22;16915;51.466;3.610;2023-05-02T08:22:56;13.30;99.90
30097;DHT22;16915;51.466;3.610;2023-05-02T08:25:22;13.40;99.90
30097;DHT22;16915;51.466;3.610;2023-05-02T08:27:47;13.40;99.90
30097;DHT22;16915;51.466;3.610;2023-05-02T08:30:13;13.40;99.90
30097;DHT22;16915;51.466;3.610;2023-05-02T08:32:38;13.50;99.90
30097;DHT22;16915;51.466;3.610;2023-05-02T08:35:04;13.40;99.90
30097;DHT22;16915;51.466;3.610;2023-05-02T08:37:30;13.40;99.90
30097;DHT22;16915;51.466;3.610;2023-05-02T08:39:56;13.20;99.90
30097;DHT22;16915;51.466;3.610;2023-05-02T08:42:22;13.20;99.90
30097;DHT22;16915;51.466;3.610;2023-05-02T08:44:47;13.20;99.90
30097;DHT22;16915;51.466;3.610;2023-05-02T08:47:13;13.30;99.90
30097;DHT22;16915;51.466;3.610;2023-05-02T08:49:39;13.50;99.90
30097;DHT22;16915;51.466;3.610;2023-05-02T08:52:05;13.40;99.90
30097;DHT22;16915;51.466;3.610;2023-05-02T08:54:32;13.20;99.90
30097;DHT22;16915;51.466;3.610;2023-05-02T08:56:58;13.20;99.90
30097;DHT22;16915;51.466;3.610;2023-05-02T08:59:24;13.10;99.90
30097;DHT22;16915;51.466;3.610;2023-05-02T09:01:51;13.00;99.90
30097;DHT22;16915;51.466;3.610;2023-05-02T09:04:20;13.10;99.90
30097;DHT22;16915;51.466;3.610;2023-05-02T09:06:47;13.20;99.90
30097;DHT22;16915;51.466;3.610;2023-05-02T09:09:14;13.50;99.90
30097;DHT22;16915;51.466;3.610;2023-05-02T09:11:39;13.70;99.90
30097;DHT22;16915;51.466;3.610;2023-05-02T09:14:15;13.90;99.90
30097;DHT22;16915;51.466;3.610;2023-05-02T09:16:40;14.00;99.90
30097;DHT22;16915;51.466;3.610;2023-05-02T09:19:06;14.20;99.90
30097;DHT22;16915;51.466;3.610;2023-05-02T09:21:35;14.20;99.90
30097;DHT22;16915;51.466;3.610;2023-05-02T09:24:01;14.20;99.90
30097;DHT22;16915;51.466;3.610;2023-05-02T09:26:38;13.90;99.90
30097;DHT22;16915;51.466;3.610;2023-05-02T09:29:04;13.90;99.90
30097;DHT22;16915;51.466;3.610;2023-05-02T09:33:57;14.20;99.90
30097;DHT22;16915;51.466;3.610;2023-05-02T09:36:31;14.40;99.90
30097;DHT22;16915;51.466;3.610;2023-05-02T09:39:07;14.50;99.90
30097;DHT22;16915;51.466;3.610;2023-05-02T09:41:44;14.70;99.90
30097;DHT22;16915;51.466;3.610;2023-05-02T09:44:10;14.90;99.90
30097;DHT22;16915;51.466;3.610;2023-05-02T09:46:46;15.00;99.90
30097;DHT22;16915;51.466;3.610;2023-05-02T09:49:12;15.00;99.90
30097;DHT22;16915;51.466;3.610;2023-05-02T09:51:39;15.00;99.90
30097;DHT22;16915;51.466;3.610;2023-05-02T09:54:04;15.10;99.90
30097;DHT22;16915;51.466;3.610;2023-05-02T09:56:30;15.10;99.90
30097;DHT22;16915;51.466;3.610;2023-05-02T09:59:14;15.10;99.90
30097;DHT22;16915;51.466;3.610;2023-05-02T10:01:40;15.10;99.90
30097;DHT22;16915;51.466;3.610;2023-05-02T10:04:12;15.20;99.90
30097;DHT22;16915;51.466;3.610;2023-05-02T10:06:44;15.50;99.90
30097;DHT22;16915;51.466;3.610;2023-05-02T10:09:10;15.70;99.90
30097;DHT22;16915;51.466;3.610;2023-05-02T10:11:43;16.00;99.90
30097;DHT22;16915;51.466;3.610;2023-05-02T10:14:08;16.00;99.90
30097;DHT22;16915;51.466;3.610;2023-05-02T10:16:35;16.10;99.90
30097;DHT22;16915;51.466;3.610;2023-05-02T10:19:02;16.20;99.90
30097;DHT22;16915;51.466;3.610;2023-05-02T10:21:31;16.30;99.90
30097;DHT22;16915;51.466;3.610;2023-05-02T10:23:59;16.50;99.90
30097;DHT22;16915;51.466;3.610;2023-05-02T10:26:25;16.80;99.90
30097;DHT22;16915;51.466;3.610;2023-05-02T10:28:52;17.00;99.90
30097;DHT22;16915;51.466;3.610;2023-05-02T10:31:18;17.30;99.90
30097;DHT22;16915;51.466;3.610;2023-05-02T10:33:43;17.40;99.90
30097;DHT22;16915;51.466;3.610;2023-05-02T10:36:11;17.70;99.90
30097;DHT22;16915;51.466;3.610;2023-05-02T10:38:39;18.00;99.90
30097;DHT22;16915;51.466;3.610;2023-05-02T10:41:13;18.40;99.90
30097;DHT22;16915;51.466;3.610;2023-05-02T10:43:39;18.60;99.90
30097;DHT22;16915;51.466;3.610;2023-05-02T10:51:28;18.80;98.90
30097;DHT22;16915;51.466;3.610;2023-05-02T10:59:27;19.70;98.10
30097;DHT22;16915;51.466;3.610;2023-05-02T11:01:53;20.10;96.40
30097;DHT22;16915;51.466;3.610;2023-05-02T11:04:18;20.20;96.10
30097;DHT22;16915;51.466;3.610;2023-05-02T11:11:47;20.50;95.10
30097;DHT22;16915;51.466;3.610;2023-05-02T11:19:24;20.20;93.90
30097;DHT22;16915;51.466;3.610;2023-05-02T11:21:50;20.10;94.40
30097;DHT22;16915;51.466;3.610;2023-05-02T11:30:03;21.00;93.10
30097;DHT22;16915;51.466;3.610;2023-05-02T11:35:20;21.40;94.30
30097;DHT22;16915;51.466;3.610;2023-05-02T11:40:17;21.60;93.10
30097;DHT22;16915;51.466;3.610;2023-05-02T11:42:43;21.70;92.40
30097;DHT22;16915;51.466;3.610;2023-05-02T11:45:08;21.80;91.00
30097;DHT22;16915;51.466;3.610;2023-05-02T11:47:34;21.90;91.30
30097;DHT22;16915;51.466;3.610;2023-05-02T11:50:02;22.10;91.30
30097;DHT22;16915;51.466;3.610;2023-05-02T11:52:28;22.10;90.50
30097;DHT22;16915;51.466;3.610;2023-05-02T11:54:54;22.50;90.90
30097;DHT22;16915;51.466;3.610;2023-05-02T11:57:21;23.00;90.00
30097;DHT22;16915;51.466;3.610;2023-05-02T11:59:50;23.30;88.10
30097;DHT22;16915;51.466;3.610;2023-05-02T12:02:16;23.20;88.90
30097;DHT22;16915;51.466;3.610;2023-05-02T12:04:42;23.30;86.20
30097;DHT22;16915;51.466;3.610;2023-05-02T12:07:08;23.50;86.40
30097;DHT22;16915;51.466;3.610;2023-05-02T12:09:34;23.50;86.60
30097;DHT22;16915;51.466;3.610;2023-05-02T12:12:00;23.50;86.30
30097;DHT22;16915;51.466;3.610;2023-05-02T12:14:30;23.50;85.30
30097;DHT22;16915;51.466;3.610;2023-05-02T12:16:57;23.50;84.50
30097;DHT22;16915;51.466;3.610;2023-05-02T12:19:23;23.60;84.90
30097;DHT22;16915;51.466;3.610;2023-05-02T12:21:49;23.80;85.60
30097;DHT22;16915;51.466;3.610;2023-05-02T12:24:15;23.80;85.00
30097;DHT22;16915;51.466;3.610;2023-05-02T12:26:40;23.60;83.10
30097;DHT22;16915;51.466;3.610;2023-05-02T12:29:06;23.50;82.20
30097;DHT22;16915;51.466;3.610;2023-05-02T12:31:32;23.20;82.80
30097;DHT22;16915;51.466;3.610;2023-05-02T12:33:58;23.00;83.30
30097;DHT22;16915;51.466;3.610;2023-05-02T12:36:25;23.00;82.70
30097;DHT22;16915;51.466;3.610;2023-05-02T12:38:53;22.80;83.80
30097;DHT22;16915;51.466;3.610;2023-05-02T12:43:59;22.90;83.40
30097;DHT22;16915;51.466;3.610;2023-05-02T12:46:27;23.00;84.60
30097;DHT22;16915;51.466;3.610;2023-05-02T12:49:05;23.00;82.30
30097;DHT22;16915;51.466;3.610;2023-05-02T12:51:32;22.90;82.90
30097;DHT22;16915;51.466;3.610;2023-05-02T12:53:58;23.30;84.10
30097;DHT22;16915;51.466;3.610;2023-05-02T12:56:24;23.70;82.30
30097;DHT22;16915;51.466;3.610;2023-05-02T12:58:51;24.20;79.90
30097;DHT22;16915;51.466;3.610;2023-05-02T13:01:17;24.00;80.30
30097;DHT22;16915;51.466;3.610;2023-05-02T13:03:43;23.60;81.10
30097;DHT22;16915;51.466;3.610;2023-05-02T13:06:08;23.40;80.90
30097;DHT22;16915;51.466;3.610;2023-05-02T13:08:35;23.30;81.30
30097;DHT22;16915;51.466;3.610;2023-05-02T13:11:01;23.30;81.60
30097;DHT22;16915;51.466;3.610;2023-05-02T13:13:27;23.20;81.90
30097;DHT22;16915;51.466;3.610;2023-05-02T13:15:53;23.40;81.90
30097;DHT22;16915;51.466;3.610;2023-05-02T13:18:19;23.90;80.60
30097;DHT22;16915;51.466;3.610;2023-05-02T13:20:44;23.80;79.80
30097;DHT22;16915;51.466;3.610;2023-05-02T13:23:10;23.90;80.80
30097;DHT22;16915;51.466;3.610;2023-05-02T13:25:35;24.20;80.60
30097;DHT22;16915;51.466;3.610;2023-05-02T13:28:01;24.40;77.80
30097;DHT22;16915;51.466;3.610;2023-05-02T13:30:26;24.20;77.00
30097;DHT22;16915;51.466;3.610;2023-05-02T13:32:52;24.10;77.10
30097;DHT22;16915;51.466;3.610;2023-05-02T13:35:17;23.90;77.20
30097;DHT22;16915;51.466;3.610;2023-05-02T13:37:43;23.70;76.80
30097;DHT22;16915;51.466;3.610;2023-05-02T13:40:08;23.60;78.50
30097;DHT22;16915;51.466;3.610;2023-05-02T13:42:35;24.10;77.40
30097;DHT22;16915;51.466;3.610;2023-05-02T13:45:00;23.90;75.80
30097;DHT22;16915;51.466;3.610;2023-05-02T13:47:29;23.60;75.90
30097;DHT22;16915;51.466;3.610;2023-05-02T13:49:54;23.40;76.40
30097;DHT22;16915;51.466;3.610;2023-05-02T13:52:20;23.70;76.80
30097;DHT22;16915;51.466;3.610;2023-05-02T13:54:45;24.30;77.20
30097;DHT22;16915;51.466;3.610;2023-05-02T13:57:11;24.60;74.30
30097;DHT22;16915;51.466;3.610;2023-05-02T13:59:36;24.40;74.60
30097;DHT22;16915;51.466;3.610;2023-05-02T14:02:02;24.30;74.10
30097;DHT22;16915;51.466;3.610;2023-05-02T14:04:27;24.30;73.70
30097;DHT22;16915;51.466;3.610;2023-05-02T14:06:53;24.30;72.90
30097;DHT22;16915;51.466;3.610;2023-05-02T14:09:18;24.00;74.80
30097;DHT22;16915;51.466;3.610;2023-05-02T14:11:44;23.50;75.30
30097;DHT22;16915;51.466;3.610;2023-05-02T14:14:11;23.60;74.40
30097;DHT22;16915;51.466;3.610;2023-05-02T14:16:37;23.80;73.40
30097;DHT22;16915;51.466;3.610;2023-05-02T14:19:03;24.10;73.60
30097;DHT22;16915;51.466;3.610;2023-05-02T14:21:28;24.10;72.00
30097;DHT22;16915;51.466;3.610;2023-05-02T14:23:54;24.20;73.50
30097;DHT22;16915;51.466;3.610;2023-05-02T14:26:20;24.00;72.40
30097;DHT22;16915;51.466;3.610;2023-05-02T14:28:45;23.80;73.10
30097;DHT22;16915;51.466;3.610;2023-05-02T14:31:11;23.50;73.80
30097;DHT22;16915;51.466;3.610;2023-05-02T14:33:36;23.50;72.50
30097;DHT22;16915;51.466;3.610;2023-05-02T14:36:02;23.60;74.50
30097;DHT22;16915;51.466;3.610;2023-05-02T14:38:28;24.20;72.20
30097;DHT22;16915;51.466;3.610;2023-05-02T14:40:53;24.60;72.00
30097;DHT22;16915;51.466;3.610;2023-05-02T14:43:19;24.90;69.70
30097;DHT22;16915;51.466;3.610;2023-05-02T14:45:44;25.00;70.40
30097;DHT22;16915;51.466;3.610;2023-05-02T14:48:10;25.00;70.60
30097;DHT22;16915;51.466;3.610;2023-05-02T14:50:38;24.90;70.40
30097;DHT22;16915;51.466;3.610;2023-05-02T14:53:04;24.60;70.90
30097;DHT22;16915;51.466;3.610;2023-05-02T14:55:29;24.00;70.40
30097;DHT22;16915;51.466;3.610;2023-05-02T14:57:59;23.40;71.30
30097;DHT22;16915;51.466;3.610;2023-05-02T15:00:25;23.50;71.70
30097;DHT22;16915;51.466;3.610;2023-05-02T15:02:50;23.80;71.10
30097;DHT22;16915;51.466;3.610;2023-05-02T15:05:16;24.00;70.80
30097;DHT22;16915;51.466;3.610;2023-05-02T15:07:41;24.10;70.70
30097;DHT22;16915;51.466;3.610;2023-05-02T15:10:07;24.40;69.70
30097;DHT22;16915;51.466;3.610;2023-05-02T15:12:32;24.20;70.00
30097;DHT22;16915;51.466;3.610;2023-05-02T15:14:58;24.20;69.90
30097;DHT22;16915;51.466;3.610;2023-05-02T15:17:23;24.10;69.60
30097;DHT22;16915;51.466;3.610;2023-05-02T15:19:49;24.30;69.10
30097;DHT22;16915;51.466;3.610;2023-05-02T15:22:14;24.10;69.10
30097;DHT22;16915;51.466;3.610;2023-05-02T15:24:42;23.90;69.20
30097;DHT22;16915;51.466;3.610;2023-05-02T15:27:07;23.60;70.60
30097;DHT22;16915;51.466;3.610;2023-05-02T15:29:33;23.40;70.00
30097;DHT22;16915;51.466;3.610;2023-05-02T15:31:59;23.20;71.10
30097;DHT22;16915;51.466;3.610;2023-05-02T15:34:24;23.10;71.10
30097;DHT22;16915;51.466;3.610;2023-05-02T15:36:50;22.90;71.50
30097;DHT22;16915;51.466;3.610;2023-05-02T15:39:16;22.90;71.40
30097;DHT22;16915;51.466;3.610;2023-05-02T15:41:43;22.70;71.70
30097;DHT22;16915;51.466;3.610;2023-05-02T15:44:12;22.70;72.00
30097;DHT22;16915;51.466;3.610;2023-05-02T15:46:37;23.20;71.10
30097;DHT22;16915;51.466;3.610;2023-05-02T15:49:04;23.40;71.70
30097;DHT22;16915;51.466;3.610;2023-05-02T15:51:29;23.20;71.00
30097;DHT22;16915;51.466;3.610;2023-05-02T15:53:55;23.00;70.50
30097;DHT22;16915;51.466;3.610;2023-05-02T15:56:20;23.20;70.60
30097;DHT22;16915;51.466;3.610;2023-05-02T15:58:46;23.50;70.20
30097;DHT22;16915;51.466;3.610;2023-05-02T16:01:12;23.30;70.30
30097;DHT22;16915;51.466;3.610;2023-05-02T16:03:37;23.00;70.10
30097;DHT22;16915;51.466;3.610;2023-05-02T16:06:03;22.70;70.50
30097;DHT22;16915;51.466;3.610;2023-05-02T16:08:30;22.20;71.10
30097;DHT22;16915;51.466;3.610;2023-05-02T16:10:56;21.70;71.30
30097;DHT22;16915;51.466;3.610;2023-05-02T16:13:22;21.00;72.90
30097;DHT22;16915;51.466;3.610;2023-05-02T16:15:47;20.10;75.00
30097;DHT22;16915;51.466;3.610;2023-05-02T16:18:13;19.00;76.60
30097;DHT22;16915;51.466;3.610;2023-05-02T16:20:39;17.90;79.80